Weather at Tinos Heliport

Public forecast

Using degrees Celsius for public forecast. Weather courtesy of forecast.io.

Closest aviation weather report (METAR) to Tinos Heliport

Closest report is Mikonos Airport, 9.7 nm (17.9 km) SE. Retrieved 2021/06/24 18:50 UTC (32 minutes ago):

LGMK 241850Z 01012KT CAVOK 28/17 Q1014

Closest aviation forecast (TAF) to Tinos Heliport

Forecast is more than 12 hours old.

Closest forecast is Mikonos Airport, 9.7 nm (17.9 km) SE. Retrieved 2012/09/27 00:18 UTC (9 years ago):

TAF TAF LGMK 272300Z 2800/2909 36016KT 9999 FEW020